createdAt,value
2017-10-17T00:01:38.222Z,11.70
2017-10-17T00:04:04.638Z,10.17
2017-10-17T00:06:31.209Z,9.67
2017-10-17T00:08:57.554Z,10.33
2017-10-17T00:11:24.120Z,17.27
2017-10-17T00:13:50.570Z,13.27
2017-10-17T00:16:17.660Z,9.93
2017-10-17T00:18:44.715Z,10.10
2017-10-17T00:21:11.075Z,9.80
2017-10-17T00:23:37.438Z,10.60
2017-10-17T00:26:03.807Z,9.57
2017-10-17T00:28:30.166Z,11.80
2017-10-17T00:30:56.664Z,12.10
2017-10-17T00:33:23.032Z,10.40
2017-10-17T00:35:55.117Z,14.10
2017-10-17T00:38:22.302Z,16.03
2017-10-17T00:40:48.652Z,10.33
2017-10-17T00:43:15.741Z,10.90
2017-10-17T00:45:42.151Z,12.20
2017-10-17T00:48:09.257Z,11.27
2017-10-17T00:50:36.467Z,13.93
2017-10-17T00:53:02.765Z,9.97
2017-10-17T00:55:29.205Z,10.07
2017-10-17T00:57:55.526Z,10.67
2017-10-17T01:00:21.861Z,10.53
2017-10-17T01:02:48.182Z,10.83
2017-10-17T01:05:15.261Z,10.10
2017-10-17T01:07:42.300Z,10.37
2017-10-17T01:10:08.640Z,10.43
2017-10-17T01:12:35.844Z,10.20
2017-10-17T01:15:02.169Z,10.03
2017-10-17T01:17:29.212Z,16.67
2017-10-17T01:19:56.513Z,11.50
2017-10-17T01:22:22.900Z,14.40
2017-10-17T01:24:49.441Z,11.00
2017-10-17T01:27:15.823Z,10.30
2017-10-17T01:29:42.149Z,12.40
2017-10-17T01:32:08.449Z,11.03
2017-10-17T01:34:39.630Z,10.43
2017-10-17T01:37:05.960Z,11.20
2017-10-17T01:39:32.272Z,12.53
2017-10-17T01:41:58.581Z,12.77
2017-10-17T01:44:25.629Z,12.03
2017-10-17T01:46:51.940Z,10.70
2017-10-17T01:49:28.099Z,11.50
2017-10-17T01:51:57.372Z,11.93
2017-10-17T01:54:23.872Z,9.93
2017-10-17T01:56:50.192Z,12.20
2017-10-17T01:59:16.508Z,11.93
2017-10-17T02:01:43.542Z,10.70
2017-10-17T02:04:09.872Z,11.57
2017-10-17T02:06:36.197Z,11.33
2017-10-17T02:09:02.529Z,13.30
2017-10-17T02:11:28.837Z,10.30
2017-10-17T02:13:55.148Z,11.50
2017-10-17T02:16:22.291Z,12.73
2017-10-17T02:18:54.359Z,12.07
2017-10-17T02:21:23.645Z,11.37
2017-10-17T02:23:49.977Z,15.13
2017-10-17T02:26:22.320Z,10.37
2017-10-17T02:28:55.665Z,11.20
2017-10-17T02:31:22.885Z,10.43
2017-10-17T02:33:59.618Z,12.10
2017-10-17T02:36:26.977Z,11.30
2017-10-17T02:38:54.023Z,12.47
2017-10-17T02:41:20.441Z,12.30
2017-10-17T02:43:54.542Z,12.30
2017-10-17T02:46:21.079Z,11.33
2017-10-17T02:49:00.180Z,10.90
2017-10-17T02:51:26.513Z,10.77
2017-10-17T02:53:52.839Z,11.73
2017-10-17T02:56:19.163Z,11.87
2017-10-17T02:58:45.632Z,12.00
2017-10-17T03:01:12.928Z,11.33
2017-10-17T03:03:48.372Z,17.20
2017-10-17T03:06:15.476Z,10.50
2017-10-17T03:08:41.986Z,13.10
2017-10-17T03:11:08.330Z,10.70
2017-10-17T03:13:45.709Z,12.27
2017-10-17T03:16:12.036Z,11.90
2017-10-17T03:18:38.372Z,12.97
2017-10-17T03:21:10.491Z,11.20
2017-10-17T03:23:37.585Z,13.07
2017-10-17T03:26:04.020Z,12.00
2017-10-17T03:28:32.312Z,14.67
2017-10-17T03:31:00.575Z,12.07
2017-10-17T03:33:27.661Z,12.00
2017-10-17T03:35:54.108Z,12.03
2017-10-17T03:38:38.648Z,12.30
2017-10-17T03:41:12.288Z,12.67
2017-10-17T03:43:50.064Z,11.30
2017-10-17T03:46:16.406Z,12.30
2017-10-17T03:48:46.501Z,12.07
2017-10-17T03:51:12.841Z,16.43
2017-10-17T03:53:50.012Z,12.33
2017-10-17T03:56:19.254Z,12.53
2017-10-17T03:58:45.716Z,14.50
2017-10-17T04:01:12.021Z,11.47
2017-10-17T04:03:48.285Z,15.00
2017-10-17T04:06:21.456Z,12.47
2017-10-17T04:09:03.637Z,12.53
2017-10-17T04:11:30.016Z,14.10
2017-10-17T04:14:13.968Z,18.07
2017-10-17T04:30:08.353Z,14.57
2017-10-17T04:32:35.514Z,15.03
2017-10-17T04:35:01.941Z,15.13
2017-10-17T04:37:30.993Z,14.87
2017-10-17T04:39:57.306Z,12.80
2017-10-17T04:42:48.642Z,14.17
2017-10-17T04:45:30.739Z,14.60
2017-10-17T05:01:26.373Z,13.70
2017-10-17T05:03:56.616Z,17.93
2017-10-17T05:06:22.977Z,14.80
2017-10-17T05:09:08.105Z,12.93
2017-10-17T05:11:34.469Z,13.77
2017-10-17T05:14:13.057Z,17.30
2017-10-17T05:16:48.117Z,16.00
2017-10-17T05:19:21.373Z,19.33
2017-10-17T05:22:06.550Z,14.10
2017-10-17T05:27:49.636Z,18.50
2017-10-17T05:30:20.881Z,16.40
2017-10-17T05:32:47.225Z,16.00
2017-10-17T05:35:14.421Z,16.93
2017-10-17T05:37:40.829Z,15.47
2017-10-17T05:40:10.110Z,16.20
2017-10-17T05:42:36.606Z,14.70
2017-10-17T05:45:04.777Z,15.20
2017-10-17T05:47:37.205Z,23.77
2017-10-17T05:50:08.496Z,15.40
2017-10-17T05:52:40.868Z,18.57
2017-10-17T05:55:08.137Z,16.23
2017-10-17T05:57:34.465Z,17.10
2017-10-17T06:00:00.804Z,16.47
2017-10-17T06:02:27.132Z,14.37
2017-10-17T06:04:54.210Z,14.63
2017-10-17T06:07:21.245Z,17.97
2017-10-17T06:09:47.580Z,21.40
2017-10-17T06:12:13.865Z,19.23
2017-10-17T06:14:40.182Z,19.00
2017-10-17T06:17:07.257Z,18.07
2017-10-17T06:19:33.700Z,16.77
2017-10-17T06:22:00.353Z,17.20
2017-10-17T06:24:27.408Z,16.93
2017-10-17T06:26:54.483Z,18.37
2017-10-17T06:29:20.794Z,18.30
2017-10-17T06:31:47.132Z,20.87
2017-10-17T06:34:13.444Z,18.43
2017-10-17T06:36:40.496Z,19.00
2017-10-17T06:39:06.814Z,18.87
2017-10-17T06:41:33.868Z,21.93
2017-10-17T06:44:00.174Z,19.20
2017-10-17T06:46:27.268Z,23.93
2017-10-17T06:48:53.600Z,21.10
2017-10-17T06:51:19.938Z,19.07
2017-10-17T06:53:46.265Z,20.43
2017-10-17T06:56:12.576Z,24.00
2017-10-17T06:58:38.885Z,19.73
2017-10-17T07:01:05.328Z,22.30
2017-10-17T07:03:31.867Z,21.27
2017-10-17T07:05:58.190Z,22.43
2017-10-17T07:08:24.498Z,22.03
2017-10-17T07:10:50.913Z,22.70
2017-10-17T07:13:18.084Z,21.73
2017-10-17T07:15:44.389Z,20.00
2017-10-17T07:18:11.560Z,25.83
2017-10-17T07:20:37.876Z,19.60
2017-10-17T07:23:04.264Z,18.70
2017-10-17T07:25:31.401Z,21.50
2017-10-17T07:27:58.512Z,19.80
2017-10-17T07:30:24.621Z,23.33
2017-10-17T07:32:51.477Z,17.07
2017-10-17T07:35:18.353Z,22.20
2017-10-17T07:37:44.478Z,19.57
2017-10-17T07:40:10.719Z,21.67
2017-10-17T07:42:37.657Z,21.10
2017-10-17T07:45:04.517Z,22.00
2017-10-17T07:47:31.451Z,18.63
2017-10-17T07:49:57.562Z,20.37
2017-10-17T07:52:23.713Z,21.90
2017-10-17T07:54:49.849Z,24.13
2017-10-17T07:57:16.019Z,19.37
2017-10-17T07:59:42.163Z,24.03
2017-10-17T08:02:09.077Z,21.23
2017-10-17T08:04:35.237Z,23.27
2017-10-17T08:07:01.518Z,21.90
2017-10-17T08:09:27.669Z,23.97
2017-10-17T08:11:53.840Z,22.93
2017-10-17T08:14:20.116Z,24.33
2017-10-17T08:16:47.004Z,23.10
2017-10-17T08:19:13.137Z,19.93
2017-10-17T08:21:39.273Z,21.13
2017-10-17T08:24:05.502Z,20.67
2017-10-17T08:26:31.632Z,20.77
2017-10-17T08:28:57.778Z,25.20
2017-10-17T08:31:24.000Z,24.63
2017-10-17T08:33:50.124Z,22.73
2017-10-17T08:36:17.004Z,23.80
2017-10-17T08:38:43.161Z,23.83
2017-10-17T08:41:09.319Z,23.53
2017-10-17T08:43:35.504Z,19.13
2017-10-17T08:46:04.913Z,21.13
2017-10-17T08:48:31.795Z,25.53
2017-10-17T08:50:58.194Z,23.43
2017-10-17T08:53:24.580Z,31.93
2017-10-17T08:55:50.722Z,20.83
2017-10-17T08:58:16.868Z,25.77
2017-10-17T09:00:49.054Z,25.87
2017-10-17T09:03:15.348Z,26.30
2017-10-17T09:05:41.762Z,25.63
2017-10-17T09:08:08.110Z,30.10
2017-10-17T09:10:34.416Z,33.37
2017-10-17T09:13:01.488Z,27.00
2017-10-17T09:15:34.169Z,30.70
2017-10-17T09:18:00.653Z,25.60
2017-10-17T09:20:26.976Z,31.80
2017-10-17T09:22:53.365Z,28.43
2017-10-17T09:25:19.786Z,32.83
2017-10-17T09:27:46.881Z,36.57
2017-10-17T09:30:16.744Z,35.67
2017-10-17T09:32:43.083Z,38.03
2017-10-17T09:35:09.433Z,32.40
2017-10-17T09:37:35.803Z,32.50
2017-10-17T09:40:02.909Z,37.43
2017-10-17T09:42:29.237Z,32.27
2017-10-17T09:45:00.146Z,34.37
2017-10-17T09:47:27.211Z,33.20
2017-10-17T09:49:53.560Z,40.10
2017-10-17T09:52:19.868Z,32.73
2017-10-17T09:54:46.200Z,33.00
2017-10-17T09:57:12.526Z,37.37
2017-10-17T09:59:43.341Z,38.73
2017-10-17T10:02:09.653Z,30.37
2017-10-17T10:04:35.984Z,35.67
2017-10-17T10:07:02.324Z,31.93
2017-10-17T10:09:28.657Z,37.20
2017-10-17T10:11:54.988Z,38.83
2017-10-17T10:14:21.391Z,33.03
2017-10-17T10:16:50.427Z,34.03
2017-10-17T10:19:17.123Z,28.93
2017-10-17T10:21:43.514Z,37.57
2017-10-17T10:24:10.584Z,39.13
2017-10-17T10:26:36.886Z,36.80
2017-10-17T10:29:03.319Z,32.50
2017-10-17T10:31:35.090Z,34.00
2017-10-17T10:34:01.446Z,41.67
2017-10-17T10:36:28.509Z,45.50
2017-10-17T10:38:55.601Z,38.87
2017-10-17T10:41:22.672Z,45.50
2017-10-17T10:43:48.998Z,45.73
2017-10-17T10:46:15.325Z,39.03
2017-10-17T10:48:41.648Z,40.63
2017-10-17T10:51:11.944Z,42.63
2017-10-17T10:53:38.993Z,43.53
2017-10-17T10:56:05.353Z,44.37
2017-10-17T10:58:31.734Z,42.63
2017-10-17T11:00:58.061Z,40.57
2017-10-17T11:03:24.393Z,44.07
2017-10-17T11:05:50.714Z,40.83
2017-10-17T11:08:17.064Z,38.80
2017-10-17T11:10:45.557Z,48.07
2017-10-17T11:13:12.628Z,46.33
2017-10-17T11:15:38.976Z,42.20
2017-10-17T11:18:05.348Z,41.07
2017-10-17T11:20:32.419Z,40.60
2017-10-17T11:22:58.737Z,44.17
2017-10-17T11:25:25.058Z,43.03
2017-10-17T11:27:51.367Z,41.13
2017-10-17T11:30:20.831Z,39.93
2017-10-17T11:32:47.162Z,41.00
2017-10-17T11:35:13.496Z,42.03
2017-10-17T11:37:39.825Z,42.63
2017-10-17T11:40:06.258Z,43.30
2017-10-17T11:42:47.808Z,38.53
2017-10-17T11:45:17.678Z,43.83
2017-10-17T11:47:44.014Z,41.03
2017-10-17T11:52:47.914Z,35.80
2017-10-17T11:55:14.258Z,32.73
2017-10-17T11:57:44.024Z,40.40
2017-10-17T12:00:10.341Z,35.13
2017-10-17T12:02:36.673Z,36.20
2017-10-17T12:05:03.016Z,39.67
2017-10-17T12:07:29.324Z,46.13
2017-10-17T12:09:56.505Z,40.80
2017-10-17T12:12:22.804Z,38.17
2017-10-17T12:14:49.133Z,42.07
2017-10-17T12:17:21.769Z,44.70
2017-10-17T12:19:48.857Z,39.33
2017-10-17T12:22:15.917Z,38.37
2017-10-17T12:24:42.369Z,38.37
2017-10-17T12:27:08.673Z,38.70
2017-10-17T12:29:35.002Z,36.87
2017-10-17T12:32:01.316Z,40.10
2017-10-17T12:34:30.935Z,34.43
2017-10-17T12:36:57.266Z,33.80
2017-10-17T12:39:23.568Z,35.80
2017-10-17T12:41:49.869Z,40.97
2017-10-17T12:44:16.327Z,36.63
2017-10-17T12:46:42.637Z,36.83
2017-10-17T12:49:08.944Z,37.93
2017-10-17T12:51:35.259Z,32.13
2017-10-17T12:54:02.418Z,38.80
2017-10-17T12:56:29.162Z,36.43
2017-10-17T12:58:55.497Z,34.97
2017-10-17T13:01:21.886Z,38.13
2017-10-17T13:03:48.196Z,33.10
2017-10-17T13:06:14.513Z,30.17
2017-10-17T13:08:40.837Z,35.23
2017-10-17T13:11:07.885Z,34.77
2017-10-17T13:13:34.200Z,30.50
2017-10-17T13:16:00.531Z,34.27
2017-10-17T13:18:26.909Z,36.53
2017-10-17T13:20:53.297Z,32.00
2017-10-17T13:23:19.636Z,34.73
2017-10-17T13:25:45.929Z,35.33
2017-10-17T13:28:13.024Z,32.87
2017-10-17T13:30:39.349Z,36.47
2017-10-17T13:33:05.718Z,34.90
2017-10-17T13:35:32.050Z,36.40
2017-10-17T13:37:58.460Z,33.23
2017-10-17T13:40:25.537Z,34.00
2017-10-17T13:42:51.866Z,35.73
2017-10-17T13:45:18.965Z,33.87
2017-10-17T13:47:45.341Z,35.43
2017-10-17T13:50:11.694Z,29.27
2017-10-17T13:52:38.068Z,34.53
2017-10-17T13:55:04.392Z,34.23
2017-10-17T13:57:30.747Z,36.03
2017-10-17T13:59:57.068Z,35.40
2017-10-17T14:02:23.389Z,30.43
2017-10-17T14:04:49.725Z,32.33
2017-10-17T14:07:16.133Z,35.17
2017-10-17T14:09:42.528Z,30.97
2017-10-17T14:12:08.945Z,30.33
2017-10-17T14:14:35.436Z,34.53
2017-10-17T14:17:02.541Z,33.57
2017-10-17T14:19:28.910Z,42.83
2017-10-17T14:21:55.321Z,31.73
2017-10-17T14:24:21.706Z,35.33
2017-10-17T14:26:48.032Z,35.30
2017-10-17T14:29:15.159Z,39.57
2017-10-17T14:31:41.546Z,41.17
2017-10-17T14:34:07.946Z,40.67
2017-10-17T14:36:34.701Z,32.93
2017-10-17T14:39:01.917Z,36.40
2017-10-17T14:41:28.320Z,32.50
2017-10-17T14:43:55.027Z,33.37
2017-10-17T14:46:22.133Z,35.33
2017-10-17T14:48:48.463Z,38.00
2017-10-17T14:51:14.866Z,38.23
2017-10-17T14:53:41.224Z,40.40
2017-10-17T14:56:07.553Z,35.80
2017-10-17T14:58:33.897Z,37.10
2017-10-17T15:01:00.260Z,34.43
2017-10-17T15:03:27.532Z,39.03
2017-10-17T15:05:53.956Z,34.63
2017-10-17T15:08:20.285Z,38.20
2017-10-17T15:10:46.694Z,32.93
2017-10-17T15:13:13.084Z,34.97
2017-10-17T15:15:39.435Z,39.10
2017-10-17T15:18:05.784Z,35.80
2017-10-17T15:20:32.368Z,35.10
2017-10-17T15:22:58.725Z,37.60
2017-10-17T15:25:25.776Z,36.03
2017-10-17T15:27:52.840Z,36.67
2017-10-17T15:30:19.220Z,38.00
2017-10-17T15:32:45.600Z,39.77
2017-10-17T15:35:12.376Z,31.10
2017-10-17T15:37:38.725Z,35.63
2017-10-17T15:40:05.033Z,35.87
2017-10-17T15:42:32.209Z,34.70
2017-10-17T15:44:58.571Z,36.43
2017-10-17T15:47:24.859Z,34.10
2017-10-17T15:49:51.249Z,39.57
2017-10-17T15:52:17.566Z,41.90
2017-10-17T15:57:15.982Z,38.13
2017-10-17T15:59:42.577Z,33.60
2017-10-17T16:02:08.896Z,36.07
2017-10-17T16:04:35.902Z,40.00
2017-10-17T16:07:02.285Z,36.37
2017-10-17T16:09:28.806Z,41.30
2017-10-17T16:12:08.535Z,37.77
2017-10-17T16:14:35.394Z,42.53
2017-10-17T16:17:01.549Z,39.33
2017-10-17T16:19:27.653Z,36.57
2017-10-17T16:21:53.761Z,37.17
2017-10-17T16:24:19.850Z,34.00
2017-10-17T16:26:46.708Z,33.47
2017-10-17T16:29:13.590Z,34.83
2017-10-17T16:31:40.434Z,37.37
2017-10-17T16:34:06.630Z,38.53
2017-10-17T16:36:32.739Z,39.97
2017-10-17T16:38:59.608Z,43.73
2017-10-17T16:41:25.745Z,36.13
2017-10-17T16:43:51.862Z,35.07
2017-10-17T16:46:17.978Z,37.90
2017-10-17T16:48:44.116Z,37.70
2017-10-17T16:51:10.337Z,32.83
2017-10-17T16:53:36.473Z,36.83
2017-10-17T16:56:02.606Z,37.73
2017-10-17T16:58:28.712Z,36.90
2017-10-17T17:00:54.847Z,40.20
2017-10-17T17:03:20.965Z,31.40
2017-10-17T17:05:47.823Z,39.70
2017-10-17T17:08:13.951Z,38.63
2017-10-17T17:10:40.812Z,39.30
2017-10-17T17:13:07.670Z,40.93
2017-10-17T17:15:34.557Z,32.13
2017-10-17T17:18:00.672Z,39.30
2017-10-17T17:20:27.541Z,41.33
2017-10-17T17:22:54.008Z,35.97
2017-10-17T17:25:20.113Z,39.03
2017-10-17T17:27:46.216Z,41.50
2017-10-17T17:30:12.336Z,37.50
2017-10-17T17:32:38.565Z,48.10
2017-10-17T17:35:04.713Z,42.73
2017-10-17T17:37:30.854Z,39.23
2017-10-17T17:39:56.977Z,42.40
2017-10-17T17:42:23.461Z,38.27
2017-10-17T17:44:50.317Z,38.40
2017-10-17T17:47:16.440Z,42.23
2017-10-17T17:49:42.736Z,47.33
2017-10-17T17:52:09.269Z,41.73
2017-10-17T17:54:35.475Z,44.83
2017-10-17T17:57:01.705Z,41.87
2017-10-17T17:59:27.816Z,51.33
2017-10-17T18:01:53.962Z,46.73
2017-10-17T18:04:20.081Z,47.23
2017-10-17T18:06:46.270Z,42.67
2017-10-17T18:09:12.396Z,45.50
2017-10-17T18:11:38.545Z,46.17
2017-10-17T18:14:05.790Z,46.33
2017-10-17T18:16:32.046Z,47.93
2017-10-17T18:18:58.189Z,43.03
2017-10-17T18:21:27.941Z,42.40
2017-10-17T18:23:54.424Z,46.70
2017-10-17T18:26:20.565Z,43.90
2017-10-17T18:28:46.931Z,42.13
2017-10-17T18:31:13.070Z,44.90
2017-10-17T18:33:39.226Z,48.10
2017-10-17T18:36:07.373Z,53.03
2017-10-17T18:38:33.600Z,44.57
2017-10-17T18:40:59.740Z,44.97
2017-10-17T18:43:25.875Z,49.97
2017-10-17T18:45:55.110Z,53.33
2017-10-17T18:48:21.388Z,48.77
2017-10-17T18:50:47.585Z,45.90
2017-10-17T18:53:13.818Z,44.63
2017-10-17T18:55:40.183Z,47.03
2017-10-17T18:58:06.373Z,39.73
2017-10-17T19:00:32.501Z,41.80
2017-10-17T19:02:58.709Z,44.70
2017-10-17T19:05:26.071Z,48.37
2017-10-17T19:07:52.960Z,44.10
2017-10-17T19:10:19.089Z,42.07
2017-10-17T19:12:45.979Z,40.37
2017-10-17T19:15:12.114Z,41.53
2017-10-17T19:17:38.248Z,43.00
2017-10-17T19:20:04.384Z,40.33
2017-10-17T19:22:30.509Z,39.23
2017-10-17T19:24:57.426Z,46.63
2017-10-17T19:27:23.578Z,55.50
2017-10-17T19:29:50.063Z,43.50
2017-10-17T19:32:16.238Z,50.70
2017-10-17T19:34:42.482Z,44.17
2017-10-17T19:37:08.700Z,40.80
2017-10-17T19:39:34.837Z,40.47
2017-10-17T19:42:00.953Z,37.73
2017-10-17T19:44:27.081Z,57.20
2017-10-17T19:46:54.017Z,61.03
2017-10-17T19:49:20.249Z,50.77
2017-10-17T19:51:47.117Z,47.40
2017-10-17T19:54:14.000Z,51.17
2017-10-17T19:56:40.109Z,43.20
2017-10-17T19:59:07.808Z,51.63
2017-10-17T20:01:34.018Z,47.60
2017-10-17T20:04:00.244Z,47.07
2017-10-17T20:06:26.398Z,48.00
2017-10-17T20:08:52.573Z,43.17
2017-10-17T20:11:18.821Z,41.13
2017-10-17T20:13:45.022Z,46.27
2017-10-17T20:16:11.919Z,46.30
2017-10-17T20:18:38.039Z,48.50
2017-10-17T20:21:06.116Z,44.73
2017-10-17T20:23:32.316Z,45.77
2017-10-17T20:25:58.451Z,47.60
2017-10-17T20:28:24.745Z,41.27
2017-10-17T20:30:50.922Z,45.93
2017-10-17T20:33:17.213Z,44.20
2017-10-17T20:35:44.111Z,45.37
2017-10-17T20:38:10.289Z,48.73
2017-10-17T20:40:36.437Z,48.13
2017-10-17T20:43:02.585Z,41.87
2017-10-17T20:45:29.609Z,41.27
2017-10-17T20:47:55.725Z,42.53
2017-10-17T20:50:21.954Z,43.50
2017-10-17T20:52:48.074Z,47.00
2017-10-17T20:55:14.204Z,49.37
2017-10-17T20:57:41.128Z,48.13
2017-10-17T21:00:07.275Z,39.93
2017-10-17T21:02:33.641Z,42.67
2017-10-17T21:04:59.967Z,49.20
2017-10-17T21:07:26.269Z,45.93
2017-10-17T21:09:52.696Z,38.67
2017-10-17T21:12:19.009Z,48.57
2017-10-17T21:14:45.353Z,42.50
2017-10-17T21:17:12.464Z,44.00
2017-10-17T21:19:38.787Z,46.50
2017-10-17T21:22:05.089Z,40.97
2017-10-17T21:24:32.161Z,46.43
2017-10-17T21:26:59.062Z,41.80
2017-10-17T21:29:25.246Z,40.60
2017-10-17T21:31:52.116Z,40.37
2017-10-17T21:34:18.233Z,38.80
2017-10-17T21:36:44.537Z,43.87
2017-10-17T21:39:11.894Z,45.50
2017-10-17T21:41:38.048Z,46.57
2017-10-17T21:44:04.202Z,45.13
2017-10-17T21:46:30.305Z,50.73
2017-10-17T21:48:56.646Z,39.07
2017-10-17T21:51:22.993Z,48.03
2017-10-17T21:53:49.338Z,45.83
2017-10-17T21:56:15.659Z,44.03
2017-10-17T21:58:42.005Z,42.87
2017-10-17T22:01:09.261Z,40.20
2017-10-17T22:03:35.576Z,45.80
2017-10-17T22:06:01.919Z,47.30
2017-10-17T22:08:29.572Z,39.57
2017-10-17T22:10:55.898Z,45.47
2017-10-17T22:13:22.237Z,43.03
2017-10-17T22:15:48.604Z,41.17
2017-10-17T22:18:15.652Z,45.30
2017-10-17T22:20:41.777Z,44.40
2017-10-17T22:23:08.071Z,37.10
2017-10-17T22:25:34.437Z,41.40
2017-10-17T22:28:00.774Z,48.33
2017-10-17T22:30:27.101Z,41.47
2017-10-17T22:32:53.442Z,44.93
2017-10-17T22:35:19.793Z,40.73
2017-10-17T22:37:46.868Z,44.20
2017-10-17T22:40:13.188Z,40.80
2017-10-17T22:42:39.497Z,37.97
2017-10-17T22:45:05.834Z,40.70
2017-10-17T22:47:32.132Z,49.17
2017-10-17T22:49:58.468Z,49.03
2017-10-17T22:52:24.834Z,40.30
2017-10-17T22:54:51.186Z,40.00
2017-10-17T22:57:18.234Z,41.27
2017-10-17T22:59:44.554Z,38.13
2017-10-17T23:02:10.873Z,39.37
2017-10-17T23:04:37.232Z,43.73
2017-10-17T23:07:04.309Z,40.20
2017-10-17T23:09:30.888Z,37.03
2017-10-17T23:11:57.211Z,39.80
2017-10-17T23:14:23.528Z,38.37
2017-10-17T23:17:02.984Z,42.73
2017-10-17T23:19:42.420Z,33.73
2017-10-17T23:22:08.568Z,40.40
2017-10-17T23:24:35.631Z,38.50
2017-10-17T23:27:02.579Z,39.83
2017-10-17T23:29:29.643Z,37.63
2017-10-17T23:31:55.964Z,38.58
2017-10-17T23:34:22.300Z,34.35
2017-10-17T23:36:48.658Z,38.97
2017-10-17T23:39:15.041Z,36.93
2017-10-17T23:41:41.370Z,37.22
2017-10-17T23:44:07.728Z,33.58
2017-10-17T23:46:34.057Z,35.47
2017-10-17T23:49:00.530Z,40.17
2017-10-17T23:51:26.865Z,41.47
2017-10-17T23:53:53.189Z,38.22
2017-10-17T23:56:20.249Z,32.72
2017-10-17T23:58:47.308Z,33.33
